Flight Track Log - Related Links

Times and Time Zones

All times are in EDT time to prevent confusion due to time zone crossing. See the RPA3436 flight status page for this flight to view local times or setup timezone preferences in your user account.

Time Position Orientation Groundspeed Altitude Reporting Facility
EDT Latitude Longitude Course Direction KTS MPH feet Rate Location/Type
Fri 12:39:24 PM 38.8000 -77.0333 38° Northeast 184 212 2,000  Level Potomac TRACON
Fri 12:40:00 PM 38.9657 -76.6861 67° East  Level FlightAware Approximate
Fri 12:41:00 PM 39.0138 -76.5724 57° Northeast  Level FlightAware Approximate
Fri 12:41:20 PM 38.8267 -76.9400 70° East 259 298 6,800  Level Washington Center
Fri 12:42:00 PM 39.0578 -76.4556 63° Northeast  Level FlightAware Approximate
Fri 12:42:21 PM 38.8961 -76.8800 34° Northeast 267 307 8,600  Level Washington Center
Fri 12:43:00 PM 39.1061 -76.3414 61° Northeast  Level FlightAware Approximate
Fri 12:43:19 PM 38.9717 -76.8358 24° Northeast 289 333 11,100  Level Washington Center
Fri 12:44:00 PM 39.1408 -76.2259 38° Northeast  Level FlightAware Approximate
Fri 12:44:20 PM 39.0550 -76.8239 North 289 333 12,000  Level Washington Center
Fri 12:45:21 PM 39.0833 -76.7014 73° East 278 320 14,200 2,033 Climbing Washington Center
Fri 12:46:21 PM 39.1011 -76.5706 80° East 322 371 16,100 2,237 Climbing Washington Center
Fri 12:47:19 PM 39.1208 -76.4289 80° East 364 419 18,600 2,118 Climbing Washington Center
Fri 12:48:20 PM 39.1636 -76.2956 67° East 390 449 20,300 1,475 Climbing Washington Center
Fri 12:49:21 PM 39.2308 -76.1597 57° Northeast 414 476 21,600 1,311 Climbing Washington Center
Fri 12:50:19 PM 39.2981 -76.0233 57° Northeast 437 503 22,900 756 Climbing Washington Center
Fri 12:51:20 PM 39.3672 -75.8789 58° Northeast 449 517 23,100 1,033 Climbing Washington Center
Fri 12:52:21 PM 39.4322 -75.7286 61° Northeast 463 533 25,000 1,835 Climbing Washington Center
Fri 12:53:21 PM 39.4656 -75.5672 75° East 463 533 26,800 1,678 Climbing Washington Center
Fri 12:54:19 PM 39.5008 -75.4058 74° East 463 533 28,300 1,109 Climbing Washington Center
Fri 12:55:20 PM 39.5881 -75.2764 49° Northeast 448 516 29,000 225 Climbing Washington Center
Fri 12:57:26 PM 39.8208 -75.0008 42° Northeast 525 604 29,000  Level New York Center
Fri 12:58:26 PM 39.9278 -74.8692 43° Northeast 525 604 29,000  Level New York Center
Fri 12:59:24 PM 40.0214 -74.7500 44° Northeast 519 597 29,000  Level New York Center
Fri 01:00:25 PM 40.1386 -74.6072 43° Northeast 529 609 29,000  Level New York Center
Fri 01:01:25 PM 40.2406 -74.4906 41° Northeast 524 603 29,000  Level New York Center
Fri 01:02:24 PM 40.3528 -74.3606 41° Northeast 530 610 29,000  Level New York Center
Fri 01:03:24 PM 40.4650 -74.2328 41° Northeast 530 610 29,000 -1,346 Level New York Center
Fri 01:05:49 PM 40.7464 -73.9194 40° Northeast 532 612 24,400 -1,463 Descending Boston Center
Fri 01:06:49 PM 40.8458 -73.8036 41° Northeast 499 574 24,000 -250 Descending Boston Center
Fri 01:07:49 PM 40.9242 -73.7036 44° Northeast 486 559 23,900 -364 Descending Boston Center
Fri 01:09:01 PM 41.0544 -73.5825 35° Northeast 475 547 23,200 -500 Descending Boston Center
Fri 01:10:01 PM 41.1950 -73.4883 27° Northeast 475 547 22,800 -400 Descending Boston Center
Fri 01:11:01 PM 41.3183 -73.4461 14° North 453 521 22,400 -800 Descending Boston Center
Fri 01:12:01 PM 41.4456 -73.4592 356° North 439 505 21,200 -1,450 Descending Boston Center
Fri 01:13:01 PM 41.5578 -73.4719 355° North 445 512 19,500 -2,400 Descending Boston Center
Fri 01:14:01 PM 41.6892 -73.4853 356° North 439 505 16,400 -2,550 Descending Boston Center
Fri 01:15:01 PM 41.7825 -73.5286 341° North 408 470 14,400 -2,250 Descending Boston Center
Fri 01:16:01 PM 41.8989 -73.5417 355° North 385 443 11,900 -1,550 Descending Boston Center
Fri 01:17:01 PM 41.9908 -73.5322 North 372 428 11,300 -400 Descending Boston Center
Fri 01:18:01 PM 42.0825 -73.5311 North 346 398 11,100 -136 Descending Boston Center
Fri 01:19:13 PM 42.1700 -73.5408 355° North 323 372 11,000 -409 Descending Boston Center
Fri 01:20:13 PM 42.2653 -73.5931 338° Northwest 300 345 10,200 -1,100 Descending Boston Center
Fri 01:21:13 PM 42.3547 -73.6061 354° North 295 339 8,800 -1,650 Descending Boston Center
Fri 01:22:13 PM 42.4317 -73.6383 343° North 290 334 6,900 -1,700 Descending Boston Center
Fri 01:23:13 PM 42.5064 -73.6653 345° North 279 321 5,400 -1,450 Descending Boston Center
Fri 01:24:13 PM 42.5856 -73.6725 356° North 279 321 4,000 -700 Descending Boston Center
Fri 01:25:13 PM 42.6625 -73.6739 359° North 274 315 4,000  Level Boston Center
Fri 01:26:13 PM 42.7397 -73.6669 North 274 315 4,000 -182 Level Boston Center
Fri 01:27:25 PM 42.8006 -73.6314 23° Northeast 264 304 3,600 -455 Descending Boston Center
Fri 01:28:25 PM 42.8711 -73.6697 338° Northwest 224 258 3,000 -600 Descending Boston Center

Login

Don't have an account? Register now (free) for customized features, flight alerts, and more!